Time;durP1;ratioP1;P1;durP2;ratioP2;P2;SDS_P1;SDS_P2;PMS_P1;PMS_P2;Temp;Humidity;BMP_temperature;BMP_pressure;BME280_temperature;BME280_humidity;BME280_pressure;Samples;Min_cycle;Max_cycle;Signal;HPM_P1;HPM_P2
2022/03/31 00:01:26;;;;;;;9.97;3.03;;;22.50;99.90;;;;;;5072270;28;20270;-68
2022/03/31 00:03:53;;;;;;;7.90;3.13;;;22.40;99.90;;;;;;5072592;28;20279;-68
2022/03/31 00:06:21;;;;;;;9.90;3.00;;;22.20;99.90;;;;;;5069553;28;20180;-68
2022/03/31 00:08:48;;;;;;;6.47;3.40;;;22.10;99.90;;;;;;5072361;28;20217;-68
2022/03/31 00:11:17;;;;;;;6.27;2.90;;;22.00;99.90;;;;;;5072647;28;20174;-69
2022/03/31 00:13:45;;;;;;;8.60;3.40;;;22.00;99.90;;;;;;5072116;28;20333;-70
2022/03/31 00:16:13;;;;;;;7.47;3.70;;;21.90;99.90;;;;;;5077010;28;20215;-69
2022/03/31 00:18:40;;;;;;;10.83;3.43;;;21.80;99.90;;;;;;5078356;28;20207;-70
2022/03/31 00:24:30;;;;;;;9.47;3.23;;;21.70;99.90;;;;;;5081799;28;20188;-70
2022/03/31 00:26:58;;;;;;;12.47;3.37;;;21.60;99.90;;;;;;5082515;28;20263;-68
2022/03/31 00:29:25;;;;;;;7.53;3.40;;;21.60;99.90;;;;;;5081247;28;20172;-69
2022/03/31 00:31:52;;;;;;;9.07;3.10;;;21.50;99.90;;;;;;5076038;28;20176;-68
2022/03/31 00:34:20;;;;;;;7.63;3.40;;;21.50;99.90;;;;;;5077611;28;20555;-70
2022/03/31 00:36:53;;;;;;;8.13;3.37;;;21.50;99.90;;;;;;5072457;28;20180;-68
2022/03/31 00:39:31;;;;;;;8.70;3.23;;;21.50;99.90;;;;;;5073171;28;20215;-68
2022/03/31 00:42:01;;;;;;;10.90;3.73;;;21.50;99.90;;;;;;5073172;28;20834;-67
2022/03/31 00:44:29;;;;;;;6.53;2.90;;;21.50;99.90;;;;;;5072474;28;20650;-69
2022/03/31 00:46:57;;;;;;;9.47;3.00;;;21.40;99.90;;;;;;5073374;28;20172;-70
2022/03/31 00:49:25;;;;;;;10.60;3.00;;;21.40;99.90;;;;;;5073176;28;20230;-69
2022/03/31 00:51:55;;;;;;;8.17;2.93;;;21.50;99.90;;;;;;5073192;28;20264;-69
2022/03/31 00:54:28;;;;;;;7.00;2.53;;;21.50;99.90;;;;;;5072365;28;20240;-68
2022/03/31 00:56:58;;;;;;;8.03;3.23;;;21.40;99.90;;;;;;5073186;28;20180;-69
2022/03/31 00:59:27;;;;;;;9.30;2.90;;;21.40;99.90;;;;;;5071732;28;20209;-68
2022/03/31 01:01:54;;;;;;;8.23;2.80;;;21.40;99.90;;;;;;5073124;28;20178;-69
2022/03/31 01:04:22;;;;;;;6.27;2.40;;;21.40;99.90;;;;;;5071490;28;20187;-69
2022/03/31 01:06:50;;;;;;;4.07;2.13;;;21.40;99.90;;;;;;5071685;28;20633;-70
2022/03/31 01:09:18;;;;;;;5.80;2.43;;;21.40;99.90;;;;;;5071079;28;20187;-68
2022/03/31 01:11:46;;;;;;;6.03;2.67;;;21.30;99.90;;;;;;5071440;28;20183;-69
2022/03/31 01:14:13;;;;;;;6.80;2.20;;;21.10;99.90;;;;;;5071151;28;20318;-70
2022/03/31 01:16:41;;;;;;;6.80;2.23;;;20.90;99.90;;;;;;5070654;28;20255;-70
2022/03/31 01:19:10;;;;;;;5.53;2.70;;;20.70;99.90;;;;;;5071801;28;20205;-69
2022/03/31 01:21:43;;;;;;;7.90;2.87;;;20.60;99.90;;;;;;5073100;28;20171;-68
2022/03/31 01:24:15;;;;;;;5.83;2.87;;;20.40;99.90;;;;;;5072838;28;20645;-69
2022/03/31 01:26:44;;;;;;;8.57;3.13;;;20.10;99.90;;;;;;5073011;28;20180;-69
2022/03/31 01:29:12;;;;;;;6.50;3.13;;;20.00;99.90;;;;;;5072830;28;20231;-70
2022/03/31 01:31:39;;;;;;;10.13;3.33;;;20.00;99.90;;;;;;5076244;28;20718;-69
2022/03/31 01:34:10;;;;;;;11.87;3.73;;;19.80;99.90;;;;;;5076741;28;20209;-70
2022/03/31 01:36:37;;;;;;;16.57;3.97;;;19.70;99.90;;;;;;5076788;28;20261;-69
2022/03/31 01:39:06;;;;;;;11.70;3.97;;;19.60;99.90;;;;;;5076337;28;20294;-70
2022/03/31 01:41:33;;;;;;;13.67;4.13;;;19.60;99.90;;;;;;5076581;28;20229;-69
2022/03/31 01:44:01;;;;;;;14.57;4.20;;;19.50;99.90;;;;;;5076814;28;20214;-69
2022/03/31 01:46:29;;;;;;;13.60;4.60;;;19.40;99.90;;;;;;5076048;28;20187;-69
2022/03/31 01:48:57;;;;;;;13.47;4.17;;;19.10;99.90;;;;;;5076256;28;20176;-68
2022/03/31 01:51:24;;;;;;;17.90;5.43;;;18.90;99.90;;;;;;5075166;28;20672;-68
2022/03/31 01:53:51;;;;;;;12.57;3.77;;;18.90;99.90;;;;;;5075988;28;20181;-70
2022/03/31 01:56:19;;;;;;;15.23;4.47;;;19.00;99.90;;;;;;5076312;28;20190;-70
2022/03/31 01:58:46;;;;;;;14.87;3.87;;;19.00;99.90;;;;;;5075809;28;20219;-69
2022/03/31 02:01:14;;;;;;;9.23;3.20;;;19.00;99.90;;;;;;5075997;28;20254;-69
2022/03/31 02:03:41;;;;;;;13.67;3.40;;;18.90;99.90;;;;;;5076288;28;20176;-69
2022/03/31 02:06:09;;;;;;;15.90;3.80;;;18.90;99.90;;;;;;5076151;28;20289;-70
2022/03/31 02:08:36;;;;;;;10.93;3.57;;;18.90;99.90;;;;;;5076058;28;20179;-70
2022/03/31 02:11:03;;;;;;;10.57;3.33;;;18.90;99.90;;;;;;5074481;28;20672;-69
2022/03/31 02:13:31;;;;;;;7.63;2.80;;;19.00;99.90;;;;;;5073821;28;20577;-70
2022/03/31 02:15:58;;;;;;;10.50;3.30;;;19.00;99.90;;;;;;5076025;28;20176;-71
2022/03/31 02:18:26;;;;;;;12.63;3.87;;;19.00;99.90;;;;;;5075964;28;20210;-69
2022/03/31 02:20:53;;;;;;;9.03;3.00;;;18.90;99.90;;;;;;5076296;28;20176;-70
2022/03/31 02:23:21;;;;;;;12.87;3.53;;;19.10;99.90;;;;;;5074787;28;20183;-70
2022/03/31 02:25:48;;;;;;;8.73;3.00;;;19.10;99.90;;;;;;5075758;28;20671;-70
2022/03/31 02:28:16;;;;;;;12.33;3.10;;;19.40;99.90;;;;;;5075463;28;20284;-69
2022/03/31 02:30:43;;;;;;;8.87;2.87;;;19.50;99.90;;;;;;5075834;28;20175;-70
2022/03/31 02:33:10;;;;;;;8.87;2.57;;;19.70;99.90;;;;;;5075745;28;20172;-69
2022/03/31 02:35:38;;;;;;;6.80;2.37;;;19.60;99.90;;;;;;5075864;28;20206;-68
2022/03/31 02:38:05;;;;;;;8.23;2.87;;;19.50;99.90;;;;;;5075544;28;20203;-69
2022/03/31 02:40:33;;;;;;;8.07;2.90;;;19.60;99.90;;;;;;5075420;28;20183;-70
2022/03/31 02:43:00;;;;;;;8.27;2.87;;;19.70;99.90;;;;;;5075447;28;20174;-69
2022/03/31 02:45:27;;;;;;;12.17;3.27;;;19.90;99.90;;;;;;5075556;28;20182;-69
2022/03/31 02:47:55;;;;;;;10.90;3.20;;;19.90;99.90;;;;;;5075460;28;20169;-70
2022/03/31 02:50:22;;;;;;;9.90;4.00;;;19.80;99.90;;;;;;5075022;28;20174;-70
2022/03/31 02:55:34;;;;;;;9.17;3.53;;;20.10;99.90;;;;;;5074919;28;20207;-68
2022/03/31 02:58:04;;;;;;;10.53;3.60;;;20.10;99.90;;;;;;5075027;28;20231;-69
2022/03/31 03:00:34;;;;;;;13.70;3.33;;;20.00;99.90;;;;;;5073193;28;20218;-70
2022/03/31 03:03:06;;;;;;;14.30;4.23;;;20.00;99.90;;;;;;5075177;28;20200;-69
2022/03/31 03:05:34;;;;;;;15.13;3.60;;;20.00;99.90;;;;;;5073968;28;20168;-70
2022/03/31 03:08:02;;;;;;;14.27;4.00;;;19.90;99.90;;;;;;5075070;28;20192;-71
2022/03/31 03:10:29;;;;;;;11.80;3.93;;;20.00;99.90;;;;;;5074983;28;20269;-70
2022/03/31 03:12:57;;;;;;;9.90;3.70;;;20.00;99.90;;;;;;5074717;28;20172;-69
2022/03/31 03:15:25;;;;;;;15.77;3.80;;;20.00;99.90;;;;;;5074184;28;20670;-70
2022/03/31 03:17:52;;;;;;;12.10;3.43;;;19.90;99.90;;;;;;5074713;28;20263;-70
2022/03/31 03:20:20;;;;;;;12.00;4.20;;;19.80;99.90;;;;;;5075210;28;20175;-70
2022/03/31 03:22:49;;;;;;;14.83;4.67;;;19.80;99.90;;;;;;5074623;28;20711;-70
2022/03/31 03:25:18;;;;;;;18.13;4.63;;;19.80;99.90;;;;;;5074722;28;20626;-70
2022/03/31 03:27:47;;;;;;;16.80;5.03;;;19.80;99.90;;;;;;5074260;28;20183;-69
2022/03/31 03:30:18;;;;;;;23.23;6.07;;;19.40;99.90;;;;;;5071583;28;20249;-69
2022/03/31 03:32:45;;;;;;;20.97;4.60;;;19.20;99.90;;;;;;5074297;28;20266;-69
2022/03/31 03:35:14;;;;;;;23.50;4.93;;;19.10;99.90;;;;;;5074464;28;20172;-69
2022/03/31 03:37:43;;;;;;;20.50;5.03;;;19.10;99.90;;;;;;5074263;28;20539;-69
2022/03/31 03:40:12;;;;;;;26.63;5.03;;;19.10;99.90;;;;;;5074411;28;20536;-70
2022/03/31 03:42:40;;;;;;;27.87;5.87;;;19.10;99.90;;;;;;5074320;28;20198;-69
2022/03/31 03:45:09;;;;;;;24.33;5.17;;;19.10;99.90;;;;;;5074530;28;20180;-70
2022/03/31 03:47:37;;;;;;;27.73;6.13;;;19.30;99.90;;;;;;5074169;28;20176;-70
2022/03/31 03:50:06;;;;;;;19.53;5.63;;;19.40;99.90;;;;;;5074073;28;20517;-70
2022/03/31 03:52:33;;;;;;;28.93;5.43;;;19.70;99.90;;;;;;5073609;28;20632;-70
2022/03/31 03:55:01;;;;;;;25.83;5.77;;;19.70;99.90;;;;;;5073826;28;20623;-70
2022/03/31 03:57:28;;;;;;;34.80;5.43;;;19.70;99.90;;;;;;5074070;28;20183;-69
2022/03/31 03:59:56;;;;;;;26.43;4.80;;;19.90;99.90;;;;;;5073311;28;20212;-70
2022/03/31 04:02:23;;;;;;;25.27;5.40;;;19.80;99.90;;;;;;5073398;28;20182;-70
2022/03/31 04:04:51;;;;;;;23.93;5.37;;;19.70;99.90;;;;;;5073647;28;20570;-70
2022/03/31 04:07:18;;;;;;;18.00;4.33;;;19.40;99.90;;;;;;5073784;28;20191;-70
2022/03/31 04:09:45;;;;;;;26.73;5.70;;;19.10;99.90;;;;;;5073902;28;20183;-69
2022/03/31 04:12:13;;;;;;;27.30;5.27;;;19.00;99.90;;;;;;5074007;28;20175;-69
2022/03/31 04:14:40;;;;;;;25.93;5.40;;;19.10;99.90;;;;;;5073140;28;20742;-68
2022/03/31 04:17:08;;;;;;;22.33;4.37;;;19.10;99.90;;;;;;5073044;28;20184;-70
2022/03/31 04:19:35;;;;;;;32.07;6.03;;;19.10;99.90;;;;;;5073500;28;20695;-69
2022/03/31 04:22:02;;;;;;;26.13;4.77;;;19.30;99.90;;;;;;5073754;28;20261;-69
2022/03/31 04:24:30;;;;;;;21.77;4.53;;;19.40;99.90;;;;;;5073468;28;20172;-69
2022/03/31 04:26:57;;;;;;;25.03;3.97;;;19.50;99.90;;;;;;5072952;28;20180;-70
2022/03/31 04:29:26;;;;;;;24.80;4.20;;;19.70;99.90;;;;;;5073301;28;20207;-69
2022/03/31 04:31:53;;;;;;;29.23;4.83;;;19.70;99.90;;;;;;5073497;28;20179;-70
2022/03/31 04:34:21;;;;;;;23.03;5.00;;;19.90;99.90;;;;;;5073523;28;20628;-70
2022/03/31 04:36:49;;;;;;;23.13;4.27;;;20.10;99.90;;;;;;5073185;28;20178;-69
2022/03/31 04:39:17;;;;;;;17.87;4.13;;;20.30;99.90;;;;;;5072601;28;20676;-69
2022/03/31 04:41:44;;;;;;;22.57;4.90;;;20.40;99.90;;;;;;5073320;28;20218;-69
2022/03/31 04:44:12;;;;;;;22.97;5.30;;;20.80;99.90;;;;;;5073151;28;20176;-69
2022/03/31 04:46:39;;;;;;;35.63;5.63;;;21.20;99.90;;;;;;5073217;28;20180;-69
2022/03/31 04:49:07;;;;;;;24.90;5.33;;;21.20;99.90;;;;;;5071933;28;20180;-71
2022/03/31 04:51:34;;;;;;;34.70;5.20;;;21.60;99.90;;;;;;5072106;28;20176;-69
2022/03/31 04:54:02;;;;;;;23.17;4.83;;;21.90;99.90;;;;;;5072268;28;20690;-68
2022/03/31 04:56:29;;;;;;;27.07;4.43;;;22.10;99.90;;;;;;5072549;28;20217;-68
2022/03/31 04:58:57;;;;;;;22.77;4.63;;;22.00;99.90;;;;;;5072291;28;20221;-69
2022/03/31 05:01:25;;;;;;;23.70;4.63;;;22.30;99.90;;;;;;5072185;28;20322;-69
2022/03/31 05:03:56;;;;;;;21.37;4.10;;;22.30;99.90;;;;;;5073015;28;20673;-70
2022/03/31 05:06:23;;;;;;;21.37;4.63;;;22.00;99.90;;;;;;5073296;28;20587;-70
2022/03/31 05:08:50;;;;;;;19.90;4.67;;;21.90;99.90;;;;;;5077718;28;20187;-69
2022/03/31 05:11:18;;;;;;;21.67;4.03;;;21.50;99.90;;;;;;5072953;28;20184;-69
2022/03/31 05:13:45;;;;;;;21.33;4.00;;;21.10;99.90;;;;;;5072988;28;20314;-69
2022/03/31 05:16:13;;;;;;;23.77;4.07;;;21.00;99.90;;;;;;5072799;28;20172;-69
2022/03/31 05:18:43;;;;;;;23.33;4.50;;;21.00;99.90;;;;;;5072205;28;20200;-69
2022/03/31 05:21:11;;;;;;;18.23;4.27;;;20.90;99.90;;;;;;5072387;28;20180;-67
2022/03/31 05:23:39;;;;;;;16.50;3.90;;;21.00;99.90;;;;;;5072325;28;20177;-68
2022/03/31 05:26:06;;;;;;;20.20;3.70;;;21.00;99.90;;;;;;5071198;28;20190;-69
2022/03/31 05:28:34;;;;;;;25.77;3.90;;;20.80;99.90;;;;;;5072365;28;20194;-69
2022/03/31 05:31:02;;;;;;;11.47;2.17;;;20.70;99.90;;;;;;5071613;28;20180;-68
2022/03/31 05:33:30;;;;;;;13.57;2.53;;;19.50;99.90;;;;;;5072404;28;20571;-69
2022/03/31 05:35:59;;;;;;;10.77;2.20;;;18.60;99.90;;;;;;5072091;28;20520;-69
2022/03/31 05:38:27;;;;;;;10.30;2.17;;;18.40;99.90;;;;;;5069463;28;20196;-69
2022/03/31 05:40:55;;;;;;;12.33;3.00;;;18.40;99.90;;;;;;5072146;28;20184;-69
2022/03/31 05:43:23;;;;;;;12.07;2.27;;;18.40;99.90;;;;;;5071988;28;20644;-69
2022/03/31 05:45:51;;;;;;;8.53;2.23;;;18.50;99.90;;;;;;5072042;28;20179;-69
2022/03/31 05:48:19;;;;;;;8.23;2.37;;;18.70;99.90;;;;;;5072380;28;20180;-69
2022/03/31 05:50:47;;;;;;;14.33;2.73;;;18.70;99.90;;;;;;5072008;28;20263;-69
2022/03/31 05:53:15;;;;;;;18.43;3.53;;;18.70;99.90;;;;;;5072588;28;20245;-69
2022/03/31 05:55:43;;;;;;;19.97;3.47;;;18.80;99.90;;;;;;5072633;28;20183;-69
2022/03/31 05:58:11;;;;;;;14.77;3.17;;;18.70;99.90;;;;;;5072047;28;20314;-69
2022/03/31 06:00:39;;;;;;;16.30;3.40;;;18.70;99.90;;;;;;5072481;28;20196;-69
2022/03/31 06:03:07;;;;;;;14.90;2.77;;;18.80;99.90;;;;;;5072468;28;20203;-69
2022/03/31 06:05:35;;;;;;;13.13;2.70;;;18.80;99.90;;;;;;5072881;28;20211;-68
2022/03/31 06:08:03;;;;;;;14.00;2.57;;;18.60;99.90;;;;;;5072761;28;20648;-70
2022/03/31 06:10:31;;;;;;;18.00;2.50;;;18.30;99.90;;;;;;5072389;28;20190;-70
2022/03/31 06:12:59;;;;;;;12.07;2.33;;;18.00;99.90;;;;;;5072343;28;20180;-68
2022/03/31 06:15:27;;;;;;;15.43;3.10;;;17.90;99.90;;;;;;5071575;28;20231;-68
2022/03/31 06:17:56;;;;;;;11.77;2.40;;;17.90;99.90;;;;;;5075016;28;20180;-69
2022/03/31 06:20:23;;;;;;;13.50;2.40;;;17.90;99.90;;;;;;5075899;28;20190;-70
2022/03/31 06:22:51;;;;;;;7.27;2.07;;;18.00;99.90;;;;;;5076110;28;20315;-70
2022/03/31 06:25:20;;;;;;;9.03;2.57;;;18.10;99.90;;;;;;5075865;28;20183;-68
2022/03/31 06:27:49;;;;;;;12.67;2.53;;;18.10;99.90;;;;;;5075108;28;20180;-68
2022/03/31 06:30:17;;;;;;;14.43;2.40;;;18.10;99.90;;;;;;5075664;28;20265;-68
2022/03/31 06:32:45;;;;;;;11.70;2.93;;;18.00;99.90;;;;;;5075732;28;20180;-69
2022/03/31 06:35:17;;;;;;;10.63;2.20;;;17.90;99.90;;;;;;5075877;28;20216;-68
2022/03/31 06:37:46;;;;;;;10.47;2.30;;;17.90;99.90;;;;;;5074958;28;20197;-68
2022/03/31 06:40:16;;;;;;;14.17;3.03;;;17.90;99.90;;;;;;5072263;28;20230;-69
2022/03/31 06:42:46;;;;;;;12.33;2.70;;;17.90;99.90;;;;;;5075025;28;20181;-69
2022/03/31 06:45:15;;;;;;;13.40;3.00;;;17.80;99.90;;;;;;5074930;28;20226;-69
2022/03/31 06:47:44;;;;;;;17.67;3.10;;;17.80;99.90;;;;;;5075393;28;20175;-69
2022/03/31 06:50:13;;;;;;;15.37;2.53;;;17.80;99.90;;;;;;5075388;28;20172;-69
2022/03/31 06:52:41;;;;;;;10.00;2.57;;;17.80;99.90;;;;;;5075556;28;20184;-69
2022/03/31 06:55:09;;;;;;;13.30;2.70;;;17.80;99.90;;;;;;5075411;28;20221;-68
2022/03/31 06:57:37;;;;;;;13.50;2.80;;;17.80;99.90;;;;;;5075115;28;20694;-68
2022/03/31 07:00:06;;;;;;;15.37;2.60;;;17.60;99.90;;;;;;5075113;28;20239;-67
2022/03/31 07:02:34;;;;;;;13.23;3.30;;;17.50;99.90;;;;;;5075320;28;20246;-68
2022/03/31 07:05:02;;;;;;;16.00;3.10;;;17.40;99.90;;;;;;5075146;28;20179;-68
2022/03/31 07:07:29;;;;;;;11.70;2.80;;;17.50;99.90;;;;;;5075319;28;20634;-68
2022/03/31 07:09:59;;;;;;;16.87;3.63;;;17.40;99.90;;;;;;5074981;28;20172;-68
2022/03/31 07:12:27;;;;;;;20.77;3.40;;;17.40;99.90;;;;;;5075085;28;20188;-69
2022/03/31 07:14:55;;;;;;;16.27;3.50;;;17.40;99.90;;;;;;5074775;28;20296;-70
2022/03/31 07:17:22;;;;;;;15.80;3.10;;;17.40;99.90;;;;;;5074877;28;20182;-68
2022/03/31 07:19:50;;;;;;;20.97;4.50;;;17.40;99.90;;;;;;5074793;28;20274;-69
2022/03/31 07:22:18;;;;;;;18.00;4.13;;;17.50;99.90;;;;;;5074723;28;20172;-69
2022/03/31 07:24:46;;;;;;;19.43;4.20;;;17.50;99.90;;;;;;5073979;28;20192;-69
2022/03/31 07:27:15;;;;;;;22.70;4.50;;;17.50;99.90;;;;;;5073042;28;20645;-69
2022/03/31 07:29:43;;;;;;;14.47;3.50;;;17.50;99.90;;;;;;5071107;28;20188;-68
2022/03/31 07:32:11;;;;;;;20.43;4.20;;;17.50;99.90;;;;;;5072814;28;20172;-69
2022/03/31 07:34:39;;;;;;;22.67;4.23;;;17.60;99.90;;;;;;5072611;28;20219;-68
2022/03/31 07:37:07;;;;;;;19.83;3.67;;;17.50;99.90;;;;;;5072955;28;20241;-69
2022/03/31 07:39:35;;;;;;;18.20;3.47;;;17.50;99.90;;;;;;5071798;28;20577;-68
2022/03/31 07:42:04;;;;;;;22.37;4.83;;;17.50;99.90;;;;;;5073224;28;20198;-69
2022/03/31 07:44:32;;;;;;;21.03;4.20;;;17.60;99.90;;;;;;5072725;28;20180;-68
2022/03/31 07:47:00;;;;;;;24.70;4.67;;;17.60;99.90;;;;;;5073020;28;20534;-68
2022/03/31 07:49:27;;;;;;;25.50;4.30;;;17.60;99.90;;;;;;5073031;28;20171;-68
2022/03/31 07:51:55;;;;;;;25.27;4.87;;;17.60;99.90;;;;;;5073016;28;20175;-69
2022/03/31 07:54:23;;;;;;;20.33;4.00;;;17.60;99.90;;;;;;5072502;28;20237;-69
2022/03/31 07:56:52;;;;;;;22.17;4.37;;;17.60;99.90;;;;;;5072873;28;20179;-69
2022/03/31 07:59:23;;;;;;;15.93;3.83;;;17.60;99.90;;;;;;5071447;28;20234;-69
2022/03/31 08:01:52;;;;;;;27.30;4.43;;;17.60;99.90;;;;;;5071702;28;20278;-69
2022/03/31 08:04:20;;;;;;;21.07;4.03;;;17.60;99.90;;;;;;5071338;28;20195;-69
2022/03/31 08:06:50;;;;;;;22.83;4.33;;;17.70;99.90;;;;;;5072649;28;20188;-68
2022/03/31 08:09:21;;;;;;;18.93;3.83;;;17.70;99.90;;;;;;5072597;28;20215;-69
2022/03/31 08:11:52;;;;;;;19.80;3.50;;;17.80;99.90;;;;;;5072827;28;20267;-68
2022/03/31 08:14:23;;;;;;;21.43;4.87;;;17.80;99.90;;;;;;5050915;28;20232;-68
2022/03/31 08:16:52;;;;;;;24.90;3.63;;;17.90;99.90;;;;;;5052426;28;20176;-67
2022/03/31 08:19:20;;;;;;;13.33;3.37;;;17.80;99.90;;;;;;5059551;28;20219;-68
2022/03/31 08:21:49;;;;;;;17.40;3.53;;;17.90;99.90;;;;;;5072662;28;20172;-70
2022/03/31 08:24:17;;;;;;;22.47;3.50;;;17.80;99.90;;;;;;5072315;28;20183;-69
2022/03/31 08:26:46;;;;;;;18.20;3.60;;;17.80;99.90;;;;;;5072380;28;20183;-69
2022/03/31 08:29:13;;;;;;;24.07;5.17;;;17.80;99.90;;;;;;5072093;28;20184;-69
2022/03/31 08:31:41;;;;;;;23.40;3.90;;;17.80;99.90;;;;;;5072374;28;20701;-69
2022/03/31 08:34:09;;;;;;;21.70;4.43;;;17.80;99.90;;;;;;5071719;28;20191;-69
2022/03/31 08:36:40;;;;;;;25.40;4.13;;;17.80;99.90;;;;;;5072130;28;20185;-68
2022/03/31 08:39:07;;;;;;;20.73;3.23;;;17.80;99.90;;;;;;5071532;28;20211;-67
2022/03/31 08:41:36;;;;;;;14.77;3.73;;;17.90;99.90;;;;;;5052303;28;20202;-69
2022/03/31 08:44:05;;;;;;;11.03;2.97;;;17.80;99.90;;;;;;5070279;28;20183;-68
2022/03/31 08:46:35;;;;;;;16.90;3.73;;;17.80;99.90;;;;;;5071843;28;20188;-69
2022/03/31 08:49:03;;;;;;;18.27;3.87;;;17.80;99.90;;;;;;5071297;28;20263;-68
2022/03/31 08:51:31;;;;;;;18.77;3.47;;;17.70;99.90;;;;;;5071646;28;20199;-68
2022/03/31 08:54:00;;;;;;;14.53;2.97;;;17.50;99.90;;;;;;5071773;28;20180;-69
2022/03/31 08:56:28;;;;;;;16.00;3.47;;;17.40;99.90;;;;;;5072213;28;20298;-69
2022/03/31 08:58:55;;;;;;;12.70;3.13;;;17.30;99.90;;;;;;5071785;28;20269;-69
2022/03/31 09:01:24;;;;;;;21.50;3.60;;;17.30;99.90;;;;;;5071682;28;20267;-69
2022/03/31 09:03:52;;;;;;;14.40;2.60;;;17.40;99.90;;;;;;5071605;28;20237;-68
2022/03/31 09:06:24;;;;;;;20.63;3.40;;;17.40;99.90;;;;;;5071842;28;20175;-69
2022/03/31 09:08:58;;;;;;;16.17;3.27;;;17.30;99.90;;;;;;5071580;28;20262;-70
2022/03/31 09:11:34;;;;;;;13.70;3.13;;;17.30;99.90;;;;;;5071994;28;20244;-69
2022/03/31 09:14:04;;;;;;;13.27;2.60;;;17.30;99.90;;;;;;5071808;28;20238;-70
2022/03/31 09:16:41;;;;;;;16.67;3.23;;;17.20;99.90;;;;;;5072213;28;20183;-69
2022/03/31 09:19:15;;;;;;;24.80;3.23;;;17.10;99.90;;;;;;5071661;28;20289;-69
2022/03/31 09:22:01;;;;;;;11.30;2.27;;;17.10;99.90;;;;;;5071877;28;20185;-70
2022/03/31 09:24:31;;;;;;;20.33;2.77;;;17.00;99.90;;;;;;5071814;28;20195;-69
2022/03/31 09:27:01;;;;;;;14.90;2.80;;;17.00;99.90;;;;;;5071718;28;20683;-69
2022/03/31 09:29:31;;;;;;;16.77;2.63;;;17.00;99.90;;;;;;5071764;28;20610;-69
2022/03/31 09:32:13;;;;;;;15.50;3.47;;;17.10;99.90;;;;;;5070610;28;20192;-69
2022/03/31 09:34:48;;;;;;;15.50;3.63;;;17.10;99.90;;;;;;5071764;28;20255;-68
2022/03/31 09:37:16;;;;;;;16.23;3.17;;;17.10;99.90;;;;;;5071739;28;20178;-69
2022/03/31 09:39:54;;;;;;;17.30;3.37;;;17.10;99.90;;;;;;5071532;28;20215;-69
2022/03/31 09:42:22;;;;;;;12.53;2.50;;;17.10;99.90;;;;;;5071944;28;20170;-69
2022/03/31 09:45:00;;;;;;;9.47;1.90;;;17.10;99.90;;;;;;5071510;28;20175;-70
2022/03/31 09:47:28;;;;;;;10.03;2.80;;;17.10;99.90;;;;;;5071569;28;20168;-69
2022/03/31 09:49:56;;;;;;;10.93;2.63;;;17.10;99.90;;;;;;5071538;28;20526;-69
2022/03/31 09:52:24;;;;;;;11.47;2.20;;;17.20;99.90;;;;;;5074551;28;20632;-69
2022/03/31 09:54:52;;;;;;;18.43;4.03;;;17.10;99.90;;;;;;5074248;28;20596;-69
2022/03/31 09:57:22;;;;;;;16.17;2.77;;;17.10;99.90;;;;;;5075382;28;20200;-70
2022/03/31 09:59:53;;;;;;;7.83;2.90;;;17.10;99.90;;;;;;5075205;28;20277;-69
2022/03/31 10:02:21;;;;;;;19.10;2.73;;;17.00;99.90;;;;;;5075154;28;20208;-68
2022/03/31 10:04:50;;;;;;;9.27;2.53;;;16.90;99.90;;;;;;5075068;28;20276;-69
2022/03/31 10:07:19;;;;;;;16.37;3.03;;;16.90;99.90;;;;;;5075140;28;20259;-69
2022/03/31 10:09:47;;;;;;;10.77;2.80;;;16.90;99.90;;;;;;5075216;28;20544;-69
2022/03/31 10:12:41;;;;;;;12.07;2.40;;;16.90;99.90;;;;;;5075264;28;20270;-69
2022/03/31 10:15:29;;;;;;;10.60;2.27;;;17.00;99.90;;;;;;5073676;28;20242;-69
2022/03/31 10:17:58;;;;;;;10.27;2.50;;;17.00;99.90;;;;;;5074869;28;20660;-68
2022/03/31 10:20:26;;;;;;;10.00;2.60;;;16.90;99.90;;;;;;5073823;28;20270;-68
2022/03/31 10:25:48;;;;;;;12.07;2.30;;;16.90;99.90;;;;;;5075287;28;20644;-69
2022/03/31 10:28:21;;;;;;;14.13;2.50;;;16.80;99.90;;;;;;5074849;28;20175;-69
2022/03/31 10:31:09;;;;;;;10.90;2.27;;;16.80;99.90;;;;;;5074149;28;20187;-69
2022/03/31 10:33:44;;;;;;;10.83;2.27;;;16.80;99.90;;;;;;5074511;28;20187;-68
2022/03/31 10:36:14;;;;;;;18.83;3.27;;;16.70;99.90;;;;;;5074500;28;20171;-67
2022/03/31 10:39:01;;;;;;;12.07;2.50;;;16.60;99.90;;;;;;5074395;28;20254;-70
2022/03/31 10:41:37;;;;;;;9.77;3.03;;;16.60;99.90;;;;;;5056754;28;20184;-68
2022/03/31 10:44:11;;;;;;;7.67;2.33;;;16.60;99.90;;;;;;5074498;28;20171;-69
2022/03/31 10:46:40;;;;;;;11.10;2.20;;;16.50;99.90;;;;;;5074506;28;20187;-68
2022/03/31 10:49:14;;;;;;;9.60;2.53;;;16.60;99.90;;;;;;5074219;28;20172;-67
2022/03/31 10:51:43;;;;;;;15.07;2.43;;;16.60;99.90;;;;;;5074238;28;20208;-68
2022/03/31 10:54:46;;;;;;;14.47;3.10;;;16.50;99.90;;;;;;5074201;28;20187;-68
2022/03/31 10:57:17;;;;;;;15.77;3.33;;;16.40;99.90;;;;;;5069559;28;20186;-68
2022/03/31 10:59:49;;;;;;;13.33;3.03;;;16.40;99.90;;;;;;5073433;28;20220;-68
2022/03/31 11:02:23;;;;;;;13.77;2.50;;;16.50;99.90;;;;;;5073933;28;20214;-68
2022/03/31 11:04:57;;;;;;;13.73;2.57;;;16.50;99.90;;;;;;5074116;28;20229;-68
2022/03/31 11:07:26;;;;;;;13.57;2.67;;;16.50;99.90;;;;;;5072769;28;20210;-68
2022/03/31 11:10:11;;;;;;;12.73;1.70;;;16.40;99.90;;;;;;5072423;28;20192;-66
2022/03/31 11:12:41;;;;;;;9.80;2.17;;;16.30;99.90;;;;;;5074007;28;20205;-67
2022/03/31 11:15:11;;;;;;;14.97;2.50;;;16.30;99.90;;;;;;5073309;28;20751;-67
2022/03/31 11:17:42;;;;;;;10.20;2.37;;;16.40;99.90;;;;;;5073572;28;20222;-67
2022/03/31 11:20:17;;;;;;;10.87;2.60;;;16.30;99.90;;;;;;5071554;28;20230;-67
2022/03/31 11:22:54;;;;;;;7.53;2.13;;;16.30;99.90;;;;;;5073511;28;20191;-67
2022/03/31 11:25:23;;;;;;;9.50;2.10;;;16.30;99.90;;;;;;5073879;28;20602;-66
2022/03/31 11:27:52;;;;;;;12.43;2.03;;;16.20;99.90;;;;;;5073204;28;20218;-67
2022/03/31 11:30:24;;;;;;;12.53;2.40;;;16.20;99.90;;;;;;5073360;28;20703;-67
2022/03/31 11:32:56;;;;;;;13.70;2.83;;;16.30;99.90;;;;;;5073619;28;20184;-67
2022/03/31 11:35:28;;;;;;;11.33;2.80;;;16.30;99.90;;;;;;5073587;28;20308;-67
2022/03/31 11:38:01;;;;;;;10.17;1.93;;;16.20;99.90;;;;;;5072955;28;20178;-66
2022/03/31 11:40:31;;;;;;;13.57;2.17;;;16.20;99.90;;;;;;5073358;28;20692;-67
2022/03/31 11:43:01;;;;;;;8.97;2.30;;;16.10;99.90;;;;;;5073267;28;20234;-67
2022/03/31 11:45:35;;;;;;;11.80;1.63;;;16.10;99.90;;;;;;5073422;28;20189;-66
2022/03/31 11:48:06;;;;;;;15.37;2.70;;;16.00;99.90;;;;;;5072979;28;20186;-67
2022/03/31 11:50:36;;;;;;;9.03;2.27;;;16.00;99.90;;;;;;5073238;28;20274;-67
2022/03/31 11:53:15;;;;;;;11.57;2.30;;;16.00;99.90;;;;;;5072867;28;20171;-67
2022/03/31 11:55:43;;;;;;;9.23;2.50;;;16.00;99.90;;;;;;5073270;28;20240;-68
2022/03/31 11:58:10;;;;;;;14.57;2.27;;;16.00;99.90;;;;;;5072537;28;20254;-67
2022/03/31 12:00:50;;;;;;;12.50;1.90;;;16.00;99.90;;;;;;5072945;28;20661;-67
2022/03/31 12:03:18;;;;;;;10.27;1.50;;;16.00;99.90;;;;;;5073034;28;20179;-68
2022/03/31 12:05:59;;;;;;;8.43;1.50;;;16.00;99.90;;;;;;5073030;28;20183;-67
2022/03/31 12:08:28;;;;;;;8.27;1.97;;;16.00;99.90;;;;;;5072553;28;20186;-67
2022/03/31 12:10:56;;;;;;;8.07;1.83;;;16.00;99.90;;;;;;5072714;28;20679;-67
2022/03/31 12:13:26;;;;;;;8.53;1.47;;;16.00;99.90;;;;;;5071683;28;20192;-67
2022/03/31 12:16:06;;;;;;;14.17;2.70;;;16.00;99.90;;;;;;5072990;28;20188;-67
2022/03/31 12:18:35;;;;;;;3.93;1.20;;;16.10;99.90;;;;;;5073123;28;20290;-66
2022/03/31 12:21:05;;;;;;;5.40;1.20;;;16.10;99.90;;;;;;5073782;28;20177;-68
2022/03/31 12:23:40;;;;;;;7.47;1.70;;;16.10;99.90;;;;;;5072499;28;20179;-67
2022/03/31 12:26:23;;;;;;;6.87;1.30;;;16.10;99.90;;;;;;5074193;28;20754;-67
2022/03/31 12:28:51;;;;;;;3.97;1.37;;;16.10;99.90;;;;;;5073441;28;20180;-67
2022/03/31 12:31:31;;;;;;;4.07;1.23;;;16.10;99.90;;;;;;5073524;28;20203;-67
2022/03/31 12:33:59;;;;;;;5.10;1.50;;;16.10;99.90;;;;;;5072958;28;20187;-67
2022/03/31 12:36:34;;;;;;;7.50;1.20;;;16.10;99.90;;;;;;5072424;28;20184;-66
2022/03/31 12:39:05;;;;;;;8.13;1.20;;;16.10;99.90;;;;;;5071951;28;20207;-67
2022/03/31 12:41:39;;;;;;;4.97;1.20;;;16.10;99.90;;;;;;5072480;28;20263;-67
2022/03/31 12:44:12;;;;;;;3.00;1.00;;;16.10;99.90;;;;;;5072415;28;20233;-67
2022/03/31 12:46:59;;;;;;;7.20;1.17;;;16.00;99.90;;;;;;5072092;28;20184;-67
2022/03/31 12:49:36;;;;;;;8.93;1.40;;;16.00;99.90;;;;;;5071840;28;20236;-67
2022/03/31 12:52:15;;;;;;;7.60;2.00;;;16.00;99.90;;;;;;5071001;28;20183;-67
2022/03/31 12:54:53;;;;;;;4.57;1.10;;;15.90;99.90;;;;;;5071341;28;20181;-67
2022/03/31 12:57:22;;;;;;;7.67;1.60;;;15.90;99.90;;;;;;5071648;28;20197;-66
2022/03/31 13:00:11;;;;;;;5.00;1.47;;;16.00;99.90;;;;;;5070636;28;20282;-67
2022/03/31 13:02:40;;;;;;;3.07;1.00;;;15.90;99.90;;;;;;5071240;28;20187;-66